sensor_id;sensor_type;location;lat;lon;timestamp;pressure;altitude;pressure_sealevel;temperature;humidity
63395;BME280;49531;-34.520;150.798;2023-09-19T00:00:58;100481.06;;;29.81;21.53
63395;BME280;49531;-34.520;150.798;2023-09-19T00:03:25;100477.31;;;29.85;21.41
63395;BME280;49531;-34.520;150.798;2023-09-19T00:05:52;100481.50;;;29.92;21.46
63395;BME280;49531;-34.520;150.798;2023-09-19T00:08:19;100466.13;;;29.91;21.44
63395;BME280;49531;-34.520;150.798;2023-09-19T00:10:50;100468.38;;;29.97;21.41
63395;BME280;49531;-34.520;150.798;2023-09-19T00:13:17;100462.69;;;30.02;21.36
63395;BME280;49531;-34.520;150.798;2023-09-19T00:15:47;100455.69;;;30.05;21.34
63395;BME280;49531;-34.520;150.798;2023-09-19T00:18:18;100460.69;;;30.11;21.18
63395;BME280;49531;-34.520;150.798;2023-09-19T00:21:00;100450.00;;;30.10;21.26
63395;BME280;49531;-34.520;150.798;2023-09-19T00:23:28;100447.88;;;30.15;20.93
63395;BME280;49531;-34.520;150.798;2023-09-19T00:25:59;100445.59;;;30.17;21.04
63395;BME280;49531;-34.520;150.798;2023-09-19T00:28:27;100440.69;;;30.23;20.93
63395;BME280;49531;-34.520;150.798;2023-09-19T00:30:58;100434.06;;;30.24;20.83
63395;BME280;49531;-34.520;150.798;2023-09-19T00:33:28;100430.28;;;30.29;20.82
63395;BME280;49531;-34.520;150.798;2023-09-19T00:35:58;100431.72;;;30.35;20.69
63395;BME280;49531;-34.520;150.798;2023-09-19T00:38:25;100429.53;;;30.40;20.52
63395;BME280;49531;-34.520;150.798;2023-09-19T00:40:55;100423.69;;;30.42;20.90
63395;BME280;49531;-34.520;150.798;2023-09-19T00:43:23;100430.84;;;30.43;20.82
63395;BME280;49531;-34.520;150.798;2023-09-19T00:45:52;100416.84;;;30.48;20.23
63395;BME280;49531;-34.520;150.798;2023-09-19T00:48:23;100414.72;;;30.53;20.49
63395;BME280;49531;-34.520;150.798;2023-09-19T00:50:56;100418.91;;;30.60;20.54
63395;BME280;49531;-34.520;150.798;2023-09-19T00:53:24;100401.56;;;30.59;19.99
63395;BME280;49531;-34.520;150.798;2023-09-19T00:55:53;100417.09;;;30.64;20.13
63395;BME280;49531;-34.520;150.798;2023-09-19T00:58:22;100409.31;;;30.66;20.02
63395;BME280;49531;-34.520;150.798;2023-09-19T01:00:50;100416.09;;;30.68;19.93
63395;BME280;49531;-34.520;150.798;2023-09-19T01:03:19;100405.66;;;30.74;19.97
63395;BME280;49531;-34.520;150.798;2023-09-19T01:05:48;100410.84;;;30.75;19.65
63395;BME280;49531;-34.520;150.798;2023-09-19T01:08:15;100392.81;;;30.78;20.03
63395;BME280;49531;-34.520;150.798;2023-09-19T01:10:55;100389.69;;;30.79;20.04
63395;BME280;49531;-34.520;150.798;2023-09-19T01:16:26;100403.88;;;30.90;19.77
63395;BME280;49531;-34.520;150.798;2023-09-19T01:21:58;100391.16;;;30.98;19.48
63395;BME280;49531;-34.520;150.798;2023-09-19T01:24:51;100393.13;;;30.97;19.54
63395;BME280;49531;-34.520;150.798;2023-09-19T01:28:03;100382.69;;;31.03;19.14
63395;BME280;49531;-34.520;150.798;2023-09-19T01:30:38;100387.50;;;31.06;19.15
63395;BME280;49531;-34.520;150.798;2023-09-19T01:33:06;100368.19;;;31.06;19.24
63395;BME280;49531;-34.520;150.798;2023-09-19T01:35:34;100370.28;;;31.09;19.25
63395;BME280;49531;-34.520;150.798;2023-09-19T01:38:06;100368.34;;;31.09;19.32
63395;BME280;49531;-34.520;150.798;2023-09-19T01:40:42;100348.22;;;31.09;19.09
63395;BME280;49531;-34.520;150.798;2023-09-19T01:43:27;100349.28;;;31.16;19.39
63395;BME280;49531;-34.520;150.798;2023-09-19T01:46:18;100342.84;;;31.25;18.74
63395;BME280;49531;-34.520;150.798;2023-09-19T01:51:42;100332.63;;;31.37;18.64
63395;BME280;49531;-34.520;150.798;2023-09-19T01:54:18;100336.44;;;31.45;18.22
63395;BME280;49531;-34.520;150.798;2023-09-19T01:57:14;100324.94;;;31.43;18.00
63395;BME280;49531;-34.520;150.798;2023-09-19T01:59:48;100313.31;;;31.37;18.34
63395;BME280;49531;-34.520;150.798;2023-09-19T02:02:18;100316.66;;;31.43;18.60
63395;BME280;49531;-34.520;150.798;2023-09-19T02:04:49;100321.03;;;31.44;18.80
63395;BME280;49531;-34.520;150.798;2023-09-19T02:07:17;100306.53;;;31.35;18.69
63395;BME280;49531;-34.520;150.798;2023-09-19T02:09:44;100302.63;;;31.36;18.70
63395;BME280;49531;-34.520;150.798;2023-09-19T02:12:11;100298.59;;;31.33;18.53
63395;BME280;49531;-34.520;150.798;2023-09-19T02:14:39;100303.31;;;31.45;18.90
63395;BME280;49531;-34.520;150.798;2023-09-19T02:17:07;100283.75;;;31.38;18.78
63395;BME280;49531;-34.520;150.798;2023-09-19T02:19:37;100281.47;;;31.40;18.64
63395;BME280;49531;-34.520;150.798;2023-09-19T02:22:07;100276.75;;;31.40;18.64
63395;BME280;49531;-34.520;150.798;2023-09-19T02:24:39;100280.44;;;31.44;19.13
63395;BME280;49531;-34.520;150.798;2023-09-19T02:27:06;100264.09;;;31.39;18.96
63395;BME280;49531;-34.520;150.798;2023-09-19T02:29:34;100262.47;;;31.38;19.05
63395;BME280;49531;-34.520;150.798;2023-09-19T02:32:01;100257.66;;;31.47;19.11
63395;BME280;49531;-34.520;150.798;2023-09-19T02:34:28;100241.31;;;31.42;18.81
63395;BME280;49531;-34.520;150.798;2023-09-19T02:36:56;100228.56;;;31.38;19.26
63395;BME280;49531;-34.520;150.798;2023-09-19T02:39:23;100236.03;;;31.49;19.00
63395;BME280;49531;-34.520;150.798;2023-09-19T02:41:50;100237.75;;;31.54;19.01
63395;BME280;49531;-34.520;150.798;2023-09-19T02:44:17;100237.19;;;31.48;18.94
63395;BME280;49531;-34.520;150.798;2023-09-19T02:46:49;100239.38;;;31.55;19.12
63395;BME280;49531;-34.520;150.798;2023-09-19T02:49:16;100230.00;;;31.60;18.55
63395;BME280;49531;-34.520;150.798;2023-09-19T02:51:46;100233.81;;;31.79;18.50
63395;BME280;49531;-34.520;150.798;2023-09-19T02:54:13;100216.50;;;31.95;18.56
63395;BME280;49531;-34.520;150.798;2023-09-19T02:56:42;100204.94;;;32.05;18.34
63395;BME280;49531;-34.520;150.798;2023-09-19T02:59:09;100211.59;;;32.16;18.69
63395;BME280;49531;-34.520;150.798;2023-09-19T03:01:36;100213.88;;;32.26;18.28
63395;BME280;49531;-34.520;150.798;2023-09-19T03:04:05;100214.06;;;32.33;17.68
63395;BME280;49531;-34.520;150.798;2023-09-19T03:06:37;100203.94;;;32.37;17.93
63395;BME280;49531;-34.520;150.798;2023-09-19T03:09:07;100199.00;;;32.46;18.09
63395;BME280;49531;-34.520;150.798;2023-09-19T03:11:38;100193.56;;;32.50;17.90
63395;BME280;49531;-34.520;150.798;2023-09-19T03:14:06;100202.06;;;32.57;17.39
63395;BME280;49531;-34.520;150.798;2023-09-19T03:16:33;100199.13;;;32.66;17.55
63395;BME280;49531;-34.520;150.798;2023-09-19T03:19:03;100188.06;;;32.66;17.28
63395;BME280;49531;-34.520;150.798;2023-09-19T03:21:31;100176.31;;;32.69;16.69
63395;BME280;49531;-34.520;150.798;2023-09-19T03:23:58;100180.31;;;32.71;17.16
63395;BME280;49531;-34.520;150.798;2023-09-19T03:26:25;100164.53;;;32.72;17.37
63395;BME280;49531;-34.520;150.798;2023-09-19T03:28:55;100169.47;;;32.78;17.35
63395;BME280;49531;-34.520;150.798;2023-09-19T03:31:22;100160.44;;;32.81;16.97
63395;BME280;49531;-34.520;150.798;2023-09-19T03:33:52;100156.50;;;32.83;17.37
63395;BME280;49531;-34.520;150.798;2023-09-19T03:36:19;100148.28;;;32.86;17.60
63395;BME280;49531;-34.520;150.798;2023-09-19T03:38:46;100147.22;;;32.91;17.33
63395;BME280;49531;-34.520;150.798;2023-09-19T03:41:13;100144.09;;;32.92;17.03
63395;BME280;49531;-34.520;150.798;2023-09-19T03:43:43;100145.44;;;32.98;16.78
63395;BME280;49531;-34.520;150.798;2023-09-19T03:46:10;100135.97;;;32.99;16.76
63395;BME280;49531;-34.520;150.798;2023-09-19T03:48:39;100132.03;;;33.00;16.96
63395;BME280;49531;-34.520;150.798;2023-09-19T03:51:06;100128.09;;;33.01;17.25
63395;BME280;49531;-34.520;150.798;2023-09-19T03:53:33;100115.44;;;33.00;17.08
63395;BME280;49531;-34.520;150.798;2023-09-19T03:56:00;100129.00;;;33.05;17.10
63395;BME280;49531;-34.520;150.798;2023-09-19T03:58:27;100130.59;;;33.06;16.86
63395;BME280;49531;-34.520;150.798;2023-09-19T04:00:58;100119.53;;;33.06;16.74
63395;BME280;49531;-34.520;150.798;2023-09-19T04:03:25;100104.97;;;33.09;16.91
63395;BME280;49531;-34.520;150.798;2023-09-19T04:06:01;100117.28;;;33.12;17.16
63395;BME280;49531;-34.520;150.798;2023-09-19T04:08:28;100100.75;;;33.16;16.92
63395;BME280;49531;-34.520;150.798;2023-09-19T04:10:55;100081.38;;;33.16;17.01
63395;BME280;49531;-34.520;150.798;2023-09-19T04:13:26;100086.94;;;33.16;17.10
63395;BME280;49531;-34.520;150.798;2023-09-19T04:15:53;100097.63;;;33.17;16.87
63395;BME280;49531;-34.520;150.798;2023-09-19T04:18:20;100081.81;;;33.18;16.95
63395;BME280;49531;-34.520;150.798;2023-09-19T04:20:52;100086.97;;;33.19;17.27
63395;BME280;49531;-34.520;150.798;2023-09-19T04:23:20;100086.69;;;33.24;16.84
63395;BME280;49531;-34.520;150.798;2023-09-19T04:25:47;100074.81;;;33.24;16.83
63395;BME280;49531;-34.520;150.798;2023-09-19T04:28:15;100078.03;;;33.26;16.87
63395;BME280;49531;-34.520;150.798;2023-09-19T04:30:42;100082.94;;;33.32;16.45
63395;BME280;49531;-34.520;150.798;2023-09-19T04:33:09;100073.91;;;33.35;16.35
63395;BME280;49531;-34.520;150.798;2023-09-19T04:35:37;100075.16;;;33.38;15.87
63395;BME280;49531;-34.520;150.798;2023-09-19T04:38:05;100056.22;;;33.40;15.37
63395;BME280;49531;-34.520;150.798;2023-09-19T04:40:33;100050.75;;;33.43;15.42
63395;BME280;49531;-34.520;150.798;2023-09-19T04:43:00;100049.59;;;33.44;15.50
63395;BME280;49531;-34.520;150.798;2023-09-19T04:45:28;100056.81;;;33.49;15.73
63395;BME280;49531;-34.520;150.798;2023-09-19T04:47:59;100056.44;;;33.51;14.98
63395;BME280;49531;-34.520;150.798;2023-09-19T04:50:26;100042.22;;;33.52;14.89
63395;BME280;49531;-34.520;150.798;2023-09-19T04:52:54;100029.25;;;33.37;15.42
63395;BME280;49531;-34.520;150.798;2023-09-19T04:55:21;100033.47;;;33.31;16.10
63395;BME280;49531;-34.520;150.798;2023-09-19T04:57:50;100029.53;;;33.32;16.11
63395;BME280;49531;-34.520;150.798;2023-09-19T05:00:18;100031.88;;;33.30;15.85
63395;BME280;49531;-34.520;150.798;2023-09-19T05:02:56;100034.66;;;33.30;16.52
63395;BME280;49531;-34.520;150.798;2023-09-19T05:05:24;100024.88;;;33.17;16.22
63395;BME280;49531;-34.520;150.798;2023-09-19T05:07:52;100029.66;;;33.20;16.59
63395;BME280;49531;-34.520;150.798;2023-09-19T05:10:20;100034.78;;;33.18;16.60
63395;BME280;49531;-34.520;150.798;2023-09-19T05:12:48;100019.19;;;33.09;16.64
63395;BME280;49531;-34.520;150.798;2023-09-19T05:15:17;100019.09;;;33.06;16.72
63395;BME280;49531;-34.520;150.798;2023-09-19T05:17:49;100017.41;;;33.01;16.82
63395;BME280;49531;-34.520;150.798;2023-09-19T05:20:21;100020.19;;;33.01;16.92
63395;BME280;49531;-34.520;150.798;2023-09-19T05:23:02;100035.69;;;33.06;16.92
63395;BME280;49531;-34.520;150.798;2023-09-19T05:25:33;100027.31;;;33.02;16.88
63395;BME280;49531;-34.520;150.798;2023-09-19T05:28:04;100020.91;;;32.98;17.34
63395;BME280;49531;-34.520;150.798;2023-09-19T05:30:32;100019.88;;;32.87;16.86
63395;BME280;49531;-34.520;150.798;2023-09-19T05:33:00;100021.09;;;32.90;17.40
63395;BME280;49531;-34.520;150.798;2023-09-19T05:35:27;100036.63;;;32.94;17.44
63395;BME280;49531;-34.520;150.798;2023-09-19T05:37:54;100034.22;;;32.93;17.42
63395;BME280;49531;-34.520;150.798;2023-09-19T05:40:22;100032.19;;;32.90;17.05
63395;BME280;49531;-34.520;150.798;2023-09-19T05:42:49;100041.72;;;32.92;16.93
63395;BME280;49531;-34.520;150.798;2023-09-19T05:45:17;100041.28;;;32.90;17.10
63395;BME280;49531;-34.520;150.798;2023-09-19T05:47:53;100019.34;;;32.81;17.37
63395;BME280;49531;-34.520;150.798;2023-09-19T05:50:30;100011.72;;;32.75;17.08
63395;BME280;49531;-34.520;150.798;2023-09-19T05:52:58;100024.03;;;32.77;17.41
63395;BME280;49531;-34.520;150.798;2023-09-19T05:55:25;100018.28;;;32.70;17.17
63395;BME280;49531;-34.520;150.798;2023-09-19T05:57:54;100017.03;;;32.68;17.22
63395;BME280;49531;-34.520;150.798;2023-09-19T06:00:26;100023.91;;;32.74;17.33
63395;BME280;49531;-34.520;150.798;2023-09-19T06:02:57;100024.72;;;32.74;17.51
63395;BME280;49531;-34.520;150.798;2023-09-19T06:05:25;100033.13;;;32.78;17.44
63395;BME280;49531;-34.520;150.798;2023-09-19T06:07:58;100028.88;;;32.84;16.17
63395;BME280;49531;-34.520;150.798;2023-09-19T06:10:30;100022.50;;;32.99;16.14
63395;BME280;49531;-34.520;150.798;2023-09-19T06:12:58;100025.16;;;33.11;16.22
63395;BME280;49531;-34.520;150.798;2023-09-19T06:15:25;100032.50;;;33.23;16.30
63395;BME280;49531;-34.520;150.798;2023-09-19T06:17:54;100037.31;;;33.26;16.30
63395;BME280;49531;-34.520;150.798;2023-09-19T06:20:22;100045.72;;;33.30;16.19
63395;BME280;49531;-34.520;150.798;2023-09-19T06:22:50;100042.66;;;33.35;16.04
63395;BME280;49531;-34.520;150.798;2023-09-19T06:25:18;100033.19;;;33.36;16.11
63395;BME280;49531;-34.520;150.798;2023-09-19T06:27:49;100047.19;;;33.43;15.93
63395;BME280;49531;-34.520;150.798;2023-09-19T06:30:21;100058.25;;;33.43;15.75
63395;BME280;49531;-34.520;150.798;2023-09-19T06:32:49;100053.09;;;33.41;15.43
63395;BME280;49531;-34.520;150.798;2023-09-19T06:35:16;100052.72;;;33.43;15.60
63395;BME280;49531;-34.520;150.798;2023-09-19T06:37:43;100044.41;;;33.43;15.67
63395;BME280;49531;-34.520;150.798;2023-09-19T06:40:14;100054.41;;;33.47;15.76
63395;BME280;49531;-34.520;150.798;2023-09-19T06:42:46;100049.28;;;33.50;15.78
63395;BME280;49531;-34.520;150.798;2023-09-19T06:45:15;100055.63;;;33.50;15.74
63395;BME280;49531;-34.520;150.798;2023-09-19T06:47:51;100051.25;;;33.49;15.78
63395;BME280;49531;-34.520;150.798;2023-09-19T06:50:19;100052.44;;;33.48;15.72
63395;BME280;49531;-34.520;150.798;2023-09-19T06:52:50;100056.81;;;33.49;15.71
63395;BME280;49531;-34.520;150.798;2023-09-19T06:55:22;100052.44;;;33.48;15.67
63395;BME280;49531;-34.520;150.798;2023-09-19T06:57:54;100059.66;;;33.53;15.76
63395;BME280;49531;-34.520;150.798;2023-09-19T07:00:21;100055.63;;;33.50;15.59
63395;BME280;49531;-34.520;150.798;2023-09-19T07:02:59;100053.97;;;33.45;16.28
63395;BME280;49531;-34.520;150.798;2023-09-19T07:05:28;100065.75;;;33.42;16.22
63395;BME280;49531;-34.520;150.798;2023-09-19T07:07:55;100061.59;;;33.33;15.82
63395;BME280;49531;-34.520;150.798;2023-09-19T07:10:22;100066.25;;;33.29;16.03
63395;BME280;49531;-34.520;150.798;2023-09-19T07:12:57;100062.88;;;33.20;16.34
63395;BME280;49531;-34.520;150.798;2023-09-19T07:15:25;100060.25;;;33.07;16.91
63395;BME280;49531;-34.520;150.798;2023-09-19T07:17:53;100069.00;;;33.09;16.40
63395;BME280;49531;-34.520;150.798;2023-09-19T07:20:23;100069.88;;;33.13;16.28
63395;BME280;49531;-34.520;150.798;2023-09-19T07:22:55;100073.53;;;33.18;15.82
63395;BME280;49531;-34.520;150.798;2023-09-19T07:25:22;100081.81;;;33.18;16.62
63395;BME280;49531;-34.520;150.798;2023-09-19T07:27:49;100081.44;;;33.19;16.32
63395;BME280;49531;-34.520;150.798;2023-09-19T07:30:17;100082.25;;;33.20;16.48
63395;BME280;49531;-34.520;150.798;2023-09-19T07:32:44;100095.22;;;33.16;15.52
63395;BME280;49531;-34.520;150.798;2023-09-19T07:35:11;100095.66;;;33.18;15.85
63395;BME280;49531;-34.520;150.798;2023-09-19T07:37:38;100096.06;;;33.20;15.55
63395;BME280;49531;-34.520;150.798;2023-09-19T07:40:06;100100.41;;;33.17;16.45
63395;BME280;49531;-34.520;150.798;2023-09-19T07:42:36;100099.16;;;33.14;15.90
63395;BME280;49531;-34.520;150.798;2023-09-19T07:45:08;100098.63;;;33.09;16.00
63395;BME280;49531;-34.520;150.798;2023-09-19T07:47:35;100103.63;;;33.03;16.18
63395;BME280;49531;-34.520;150.798;2023-09-19T07:50:02;100096.06;;;33.00;16.50
63395;BME280;49531;-34.520;150.798;2023-09-19T07:52:30;100101.59;;;33.00;16.70
63395;BME280;49531;-34.520;150.798;2023-09-19T07:54:59;100106.69;;;32.98;16.36
63395;BME280;49531;-34.520;150.798;2023-09-19T07:57:27;100103.47;;;32.96;16.74
63395;BME280;49531;-34.520;150.798;2023-09-19T07:59:55;100100.97;;;32.91;16.80
63395;BME280;49531;-34.520;150.798;2023-09-19T08:02:23;100100.97;;;32.91;16.56
63395;BME280;49531;-34.520;150.798;2023-09-19T08:04:50;100108.75;;;32.86;16.60
63395;BME280;49531;-34.520;150.798;2023-09-19T08:07:18;100107.06;;;32.81;16.59
63395;BME280;49531;-34.520;150.798;2023-09-19T08:09:45;100109.78;;;32.77;17.05
63395;BME280;49531;-34.520;150.798;2023-09-19T08:12:15;100106.25;;;32.80;17.23
63395;BME280;49531;-34.520;150.798;2023-09-19T08:14:43;100104.75;;;32.83;17.30
63395;BME280;49531;-34.520;150.798;2023-09-19T08:17:10;100113.84;;;32.84;17.39
63395;BME280;49531;-34.520;150.798;2023-09-19T08:19:38;100110.28;;;32.83;17.43
63395;BME280;49531;-34.520;150.798;2023-09-19T08:22:08;100118.56;;;32.83;17.41
63395;BME280;49531;-34.520;150.798;2023-09-19T08:24:37;100117.25;;;32.77;17.65
63395;BME280;49531;-34.520;150.798;2023-09-19T08:27:04;100113.84;;;32.68;17.45
63395;BME280;49531;-34.520;150.798;2023-09-19T08:29:35;100112.25;;;32.67;17.42
63395;BME280;49531;-34.520;150.798;2023-09-19T08:32:02;100111.44;;;32.66;17.34
63395;BME280;49531;-34.520;150.798;2023-09-19T08:34:30;100117.69;;;32.63;17.38
63395;BME280;49531;-34.520;150.798;2023-09-19T08:36:59;100114.91;;;32.63;16.79
63395;BME280;49531;-34.520;150.798;2023-09-19T08:39:26;100120.00;;;32.61;17.25
63395;BME280;49531;-34.520;150.798;2023-09-19T08:42:00;100122.31;;;32.59;17.58
63395;BME280;49531;-34.520;150.798;2023-09-19T08:44:28;100114.75;;;32.56;17.56
63395;BME280;49531;-34.520;150.798;2023-09-19T08:47:16;100118.31;;;32.57;17.45
63395;BME280;49531;-34.520;150.798;2023-09-19T08:50:01;100118.66;;;32.55;17.52
63395;BME280;49531;-34.520;150.798;2023-09-19T08:52:41;100121.44;;;32.55;17.22
63395;BME280;49531;-34.520;150.798;2023-09-19T08:55:12;100126.41;;;32.49;17.48
63395;BME280;49531;-34.520;150.798;2023-09-19T08:57:41;100115.53;;;32.41;17.18
63395;BME280;49531;-34.520;150.798;2023-09-19T09:00:16;100124.72;;;32.45;17.32
63395;BME280;49531;-34.520;150.798;2023-09-19T09:02:47;100129.00;;;32.42;17.41
63395;BME280;49531;-34.520;150.798;2023-09-19T09:05:16;100126.53;;;32.37;17.61
63395;BME280;49531;-34.520;150.798;2023-09-19T09:07:50;100130.34;;;32.33;17.69
63395;BME280;49531;-34.520;150.798;2023-09-19T09:10:23;100125.78;;;32.25;18.02
63395;BME280;49531;-34.520;150.798;2023-09-19T09:12:54;100131.75;;;32.27;17.78
63395;BME280;49531;-34.520;150.798;2023-09-19T09:15:24;100137.19;;;32.23;17.59
63395;BME280;49531;-34.520;150.798;2023-09-19T09:17:52;100136.03;;;32.24;17.71
63395;BME280;49531;-34.520;150.798;2023-09-19T09:20:23;100122.69;;;32.14;17.98
63395;BME280;49531;-34.520;150.798;2023-09-19T09:22:54;100133.84;;;32.17;17.99
63395;BME280;49531;-34.520;150.798;2023-09-19T09:26:02;100138.81;;;32.12;17.79
63395;BME280;49531;-34.520;150.798;2023-09-19T09:28:30;100138.47;;;32.13;17.67
63395;BME280;49531;-34.520;150.798;2023-09-19T09:30:58;100136.78;;;32.09;17.95
63395;BME280;49531;-34.520;150.798;2023-09-19T09:33:25;100127.41;;;31.98;18.00
63395;BME280;49531;-34.520;150.798;2023-09-19T09:36:00;100139.78;;;32.04;18.11
63395;BME280;49531;-34.520;150.798;2023-09-19T09:38:48;100146.75;;;31.98;17.75
63395;BME280;49531;-34.520;150.798;2023-09-19T09:41:16;100139.63;;;31.97;17.89
63395;BME280;49531;-34.520;150.798;2023-09-19T09:43:54;100148.59;;;31.94;17.86
63395;BME280;49531;-34.520;150.798;2023-09-19T09:46:21;100142.63;;;31.92;17.96
63395;BME280;49531;-34.520;150.798;2023-09-19T09:51:51;100150.75;;;31.72;17.57
63395;BME280;49531;-34.520;150.798;2023-09-19T09:54:29;100148.03;;;31.48;17.94
63395;BME280;49531;-34.520;150.798;2023-09-19T09:57:09;100150.00;;;31.47;18.06
63395;BME280;49531;-34.520;150.798;2023-09-19T09:59:58;100161.50;;;31.37;18.00
63395;BME280;49531;-34.520;150.798;2023-09-19T10:02:44;100152.44;;;31.25;18.04
63395;BME280;49531;-34.520;150.798;2023-09-19T10:05:19;100156.34;;;31.36;18.09
63395;BME280;49531;-34.520;150.798;2023-09-19T10:08:21;100147.50;;;31.30;18.13
63395;BME280;49531;-34.520;150.798;2023-09-19T10:10:52;100139.44;;;31.25;18.36
63395;BME280;49531;-34.520;150.798;2023-09-19T10:13:31;100154.16;;;31.29;18.52
63395;BME280;49531;-34.520;150.798;2023-09-19T10:16:19;100170.81;;;31.33;18.35
63395;BME280;49531;-34.520;150.798;2023-09-19T10:22:09;100161.28;;;31.30;18.52
63395;BME280;49531;-34.520;150.798;2023-09-19T10:24:38;100152.44;;;31.25;18.21
63395;BME280;49531;-34.520;150.798;2023-09-19T10:30:21;100164.28;;;31.25;18.51
63395;BME280;49531;-34.520;150.798;2023-09-19T10:37:03;100129.56;;;31.00;18.43
63395;BME280;49531;-34.520;150.798;2023-09-19T10:39:36;100151.06;;;31.06;18.61
63395;BME280;49531;-34.520;150.798;2023-09-19T10:42:07;100160.75;;;31.12;18.59
63395;BME280;49531;-34.520;150.798;2023-09-19T10:44:41;100162.22;;;31.10;18.65
63395;BME280;49531;-34.520;150.798;2023-09-19T10:47:10;100157.28;;;31.03;18.85
63395;BME280;49531;-34.520;150.798;2023-09-19T10:49:47;100155.66;;;31.02;18.82
63395;BME280;49531;-34.520;150.798;2023-09-19T10:52:16;100155.66;;;31.02;18.61
63395;BME280;49531;-34.520;150.798;2023-09-19T10:54:48;100149.91;;;30.95;18.81
63395;BME280;49531;-34.520;150.798;2023-09-19T10:57:24;100153.34;;;30.92;18.78
63395;BME280;49531;-34.520;150.798;2023-09-19T11:00:11;100152.56;;;30.92;18.61
63395;BME280;49531;-34.520;150.798;2023-09-19T11:08:52;100138.41;;;30.81;18.70
63395;BME280;49531;-34.520;150.798;2023-09-19T11:11:42;100137.50;;;30.77;18.59
63395;BME280;49531;-34.520;150.798;2023-09-19T11:30:48;100125.09;;;30.59;18.84
63395;BME280;49531;-34.520;150.798;2023-09-19T11:44:31;100120.19;;;30.43;19.02
63395;BME280;49531;-34.520;150.798;2023-09-19T11:47:02;100123.63;;;30.40;19.11
63395;BME280;49531;-34.520;150.798;2023-09-19T11:49:31;100127.91;;;30.38;19.12
63395;BME280;49531;-34.520;150.798;2023-09-19T11:52:00;100117.91;;;30.33;19.24
63395;BME280;49531;-34.520;150.798;2023-09-19T11:54:31;100119.28;;;30.27;19.03
63395;BME280;49531;-34.520;150.798;2023-09-19T11:56:59;100108.94;;;30.24;19.25
63395;BME280;49531;-34.520;150.798;2023-09-19T11:59:29;100108.94;;;30.24;19.10
63395;BME280;49531;-34.520;150.798;2023-09-19T12:01:58;100102.50;;;30.20;19.37
63395;BME280;49531;-34.520;150.798;2023-09-19T12:07:09;100106.38;;;30.19;19.16
63395;BME280;49531;-34.520;150.798;2023-09-19T12:09:48;100111.44;;;30.17;19.34
63395;BME280;49531;-34.520;150.798;2023-09-19T12:12:26;100106.13;;;30.12;19.39
63395;BME280;49531;-34.520;150.798;2023-09-19T12:14:54;100093.50;;;30.11;19.33
63395;BME280;49531;-34.520;150.798;2023-09-19T12:17:35;100094.19;;;30.08;19.54
63395;BME280;49531;-34.520;150.798;2023-09-19T12:20:03;100088.22;;;30.06;19.29
63395;BME280;49531;-34.520;150.798;2023-09-19T12:22:49;100075.81;;;30.00;19.34
63395;BME280;49531;-34.520;150.798;2023-09-19T12:25:16;100084.53;;;30.02;19.30
63395;BME280;49531;-34.520;150.798;2023-09-19T12:27:46;100084.06;;;30.00;19.53
63395;BME280;49531;-34.520;150.798;2023-09-19T12:30:14;100084.06;;;30.00;19.49
63395;BME280;49531;-34.520;150.798;2023-09-19T12:33:14;100071.19;;;29.92;19.52
63395;BME280;49531;-34.520;150.798;2023-09-19T12:35:41;100071.06;;;29.88;19.45
63395;BME280;49531;-34.520;150.798;2023-09-19T12:38:34;100070.38;;;29.91;19.64
63395;BME280;49531;-34.520;150.798;2023-09-19T12:41:15;100061.19;;;29.87;19.47
63395;BME280;49531;-34.520;150.798;2023-09-19T12:43:55;100043.69;;;29.71;19.56
63395;BME280;49531;-34.520;150.798;2023-09-19T12:46:35;100033.81;;;29.70;19.60
63395;BME280;49531;-34.520;150.798;2023-09-19T12:49:17;100053.00;;;29.78;19.28
63395;BME280;49531;-34.520;150.798;2023-09-19T12:51:47;100045.91;;;29.77;19.24
63395;BME280;49531;-34.520;150.798;2023-09-19T12:54:17;100054.81;;;29.74;19.41
63395;BME280;49531;-34.520;150.798;2023-09-19T12:56:55;100040.59;;;29.72;19.51
63395;BME280;49531;-34.520;150.798;2023-09-19T12:59:30;100043.69;;;29.71;19.38
63395;BME280;49531;-34.520;150.798;2023-09-19T13:02:16;100031.16;;;29.61;19.48
63395;BME280;49531;-34.520;150.798;2023-09-19T13:09:07;100028.41;;;29.61;19.47
63395;BME280;49531;-34.520;150.798;2023-09-19T13:12:03;100014.41;;;29.54;19.52
63395;BME280;49531;-34.520;150.798;2023-09-19T13:15:22;100020.38;;;29.56;19.28
63395;BME280;49531;-34.520;150.798;2023-09-19T13:18:26;100000.09;;;29.40;19.33
63395;BME280;49531;-34.520;150.798;2023-09-19T13:27:37;100009.31;;;29.44;19.41
63395;BME280;49531;-34.520;150.798;2023-09-19T13:30:52;99993.16;;;29.42;19.40
63395;BME280;49531;-34.520;150.798;2023-09-19T13:37:25;99969.31;;;29.26;19.27
63395;BME280;49531;-34.520;150.798;2023-09-19T13:40:05;99966.75;;;29.20;19.53
63395;BME280;49531;-34.520;150.798;2023-09-19T13:45:54;99983.19;;;29.29;19.41
63395;BME280;49531;-34.520;150.798;2023-09-19T13:52:03;99979.59;;;29.16;19.50
63395;BME280;49531;-34.520;150.798;2023-09-19T13:54:55;99992.31;;;29.21;19.62
63395;BME280;49531;-34.520;150.798;2023-09-19T13:57:58;99980.81;;;29.07;19.66
63395;BME280;49531;-34.520;150.798;2023-09-19T14:01:23;99987.47;;;29.06;19.50
63395;BME280;49531;-34.520;150.798;2023-09-19T14:06:41;99993.81;;;28.98;19.72
63395;BME280;49531;-34.520;150.798;2023-09-19T14:09:43;99997.72;;;28.97;19.98